sensor_id;sensor_type;location;lat;lon;timestamp;P1;durP1;ratioP1;P2;durP2;ratioP2
29430;SDS011;16404;49.902;10.074;2024-03-07T00:01:09;49.97;;;27.83;;
29430;SDS011;16404;49.902;10.074;2024-03-07T00:03:53;48.08;;;26.65;;
29430;SDS011;16404;49.902;10.074;2024-03-07T00:06:38;50.85;;;26.55;;
29430;SDS011;16404;49.902;10.074;2024-03-07T00:09:24;54.53;;;28.52;;
29430;SDS011;16404;49.902;10.074;2024-03-07T00:12:09;48.42;;;26.00;;
29430;SDS011;16404;49.902;10.074;2024-03-07T00:14:54;43.08;;;25.48;;
29430;SDS011;16404;49.902;10.074;2024-03-07T00:17:38;47.95;;;26.58;;
29430;SDS011;16404;49.902;10.074;2024-03-07T00:20:23;49.45;;;25.33;;
29430;SDS011;16404;49.902;10.074;2024-03-07T00:23:08;51.35;;;27.00;;
29430;SDS011;16404;49.902;10.074;2024-03-07T00:25:53;51.58;;;26.38;;
29430;SDS011;16404;49.902;10.074;2024-03-07T00:28:37;51.25;;;26.70;;
29430;SDS011;16404;49.902;10.074;2024-03-07T00:31:23;50.05;;;26.58;;
29430;SDS011;16404;49.902;10.074;2024-03-07T00:34:07;50.03;;;26.35;;
29430;SDS011;16404;49.902;10.074;2024-03-07T00:36:52;49.72;;;26.67;;
29430;SDS011;16404;49.902;10.074;2024-03-07T00:39:36;56.38;;;28.15;;
29430;SDS011;16404;49.902;10.074;2024-03-07T00:42:21;48.47;;;26.73;;
29430;SDS011;16404;49.902;10.074;2024-03-07T00:45:06;47.63;;;27.00;;
29430;SDS011;16404;49.902;10.074;2024-03-07T00:47:50;49.40;;;26.67;;
29430;SDS011;16404;49.902;10.074;2024-03-07T00:50:35;51.22;;;26.88;;
29430;SDS011;16404;49.902;10.074;2024-03-07T00:53:19;50.83;;;27.50;;
29430;SDS011;16404;49.902;10.074;2024-03-07T00:56:04;44.92;;;25.35;;
29430;SDS011;16404;49.902;10.074;2024-03-07T00:58:49;51.25;;;27.10;;
29430;SDS011;16404;49.902;10.074;2024-03-07T01:01:34;50.00;;;26.85;;
29430;SDS011;16404;49.902;10.074;2024-03-07T01:04:20;47.38;;;25.65;;
29430;SDS011;16404;49.902;10.074;2024-03-07T01:07:06;50.33;;;25.75;;
29430;SDS011;16404;49.902;10.074;2024-03-07T01:09:50;49.13;;;26.17;;
29430;SDS011;16404;49.902;10.074;2024-03-07T01:12:35;48.88;;;26.77;;
29430;SDS011;16404;49.902;10.074;2024-03-07T01:15:20;50.40;;;26.30;;
29430;SDS011;16404;49.902;10.074;2024-03-07T01:20:51;51.85;;;26.20;;
29430;SDS011;16404;49.902;10.074;2024-03-07T01:23:35;48.10;;;25.90;;
29430;SDS011;16404;49.902;10.074;2024-03-07T01:26:20;50.17;;;26.23;;
29430;SDS011;16404;49.902;10.074;2024-03-07T01:29:05;53.72;;;27.40;;
29430;SDS011;16404;49.902;10.074;2024-03-07T01:31:50;46.17;;;26.35;;
29430;SDS011;16404;49.902;10.074;2024-03-07T01:34:35;48.75;;;26.95;;
29430;SDS011;16404;49.902;10.074;2024-03-07T01:37:19;54.58;;;28.00;;
29430;SDS011;16404;49.902;10.074;2024-03-07T01:40:04;53.75;;;28.25;;
29430;SDS011;16404;49.902;10.074;2024-03-07T01:45:33;60.92;;;28.17;;
29430;SDS011;16404;49.902;10.074;2024-03-07T01:48:24;51.08;;;26.25;;
29430;SDS011;16404;49.902;10.074;2024-03-07T01:51:12;50.75;;;26.38;;
29430;SDS011;16404;49.902;10.074;2024-03-07T01:53:57;53.35;;;28.35;;
29430;SDS011;16404;49.902;10.074;2024-03-07T01:56:42;54.38;;;27.45;;
29430;SDS011;16404;49.902;10.074;2024-03-07T01:59:27;62.33;;;29.45;;
29430;SDS011;16404;49.902;10.074;2024-03-07T02:02:13;56.15;;;27.85;;
29430;SDS011;16404;49.902;10.074;2024-03-07T02:04:58;49.78;;;26.33;;
29430;SDS011;16404;49.902;10.074;2024-03-07T02:07:43;48.67;;;26.70;;
29430;SDS011;16404;49.902;10.074;2024-03-07T02:10:28;53.63;;;27.08;;
29430;SDS011;16404;49.902;10.074;2024-03-07T02:13:12;61.88;;;28.05;;
29430;SDS011;16404;49.902;10.074;2024-03-07T02:15:57;57.60;;;29.52;;
29430;SDS011;16404;49.902;10.074;2024-03-07T02:18:42;55.13;;;27.67;;
29430;SDS011;16404;49.902;10.074;2024-03-07T02:21:28;55.38;;;28.52;;
29430;SDS011;16404;49.902;10.074;2024-03-07T02:24:13;55.90;;;28.88;;
29430;SDS011;16404;49.902;10.074;2024-03-07T02:26:59;54.17;;;28.10;;
29430;SDS011;16404;49.902;10.074;2024-03-07T02:29:43;56.13;;;28.20;;
29430;SDS011;16404;49.902;10.074;2024-03-07T02:32:28;52.95;;;26.90;;
29430;SDS011;16404;49.902;10.074;2024-03-07T02:35:12;48.75;;;26.75;;
29430;SDS011;16404;49.902;10.074;2024-03-07T02:37:59;53.35;;;27.35;;
29430;SDS011;16404;49.902;10.074;2024-03-07T02:40:43;57.05;;;29.65;;
29430;SDS011;16404;49.902;10.074;2024-03-07T02:43:28;53.47;;;26.42;;
29430;SDS011;16404;49.902;10.074;2024-03-07T02:46:13;53.05;;;27.23;;
29430;SDS011;16404;49.902;10.074;2024-03-07T02:48:57;52.33;;;27.95;;
29430;SDS011;16404;49.902;10.074;2024-03-07T02:51:43;49.38;;;25.77;;
29430;SDS011;16404;49.902;10.074;2024-03-07T02:54:27;50.30;;;26.40;;
29430;SDS011;16404;49.902;10.074;2024-03-07T02:57:12;47.55;;;24.52;;
29430;SDS011;16404;49.902;10.074;2024-03-07T02:59:56;51.53;;;25.98;;
29430;SDS011;16404;49.902;10.074;2024-03-07T03:02:41;52.95;;;27.60;;
29430;SDS011;16404;49.902;10.074;2024-03-07T03:05:26;44.65;;;24.05;;
29430;SDS011;16404;49.902;10.074;2024-03-07T03:08:11;42.20;;;23.65;;
29430;SDS011;16404;49.902;10.074;2024-03-07T03:10:57;47.60;;;24.33;;
29430;SDS011;16404;49.902;10.074;2024-03-07T03:13:42;48.67;;;26.27;;
29430;SDS011;16404;49.902;10.074;2024-03-07T03:16:27;43.75;;;23.77;;
29430;SDS011;16404;49.902;10.074;2024-03-07T03:19:11;47.55;;;25.70;;
29430;SDS011;16404;49.902;10.074;2024-03-07T03:21:56;44.40;;;23.88;;
29430;SDS011;16404;49.902;10.074;2024-03-07T03:24:40;44.22;;;23.90;;
29430;SDS011;16404;49.902;10.074;2024-03-07T03:27:25;42.67;;;23.90;;
29430;SDS011;16404;49.902;10.074;2024-03-07T03:30:10;43.78;;;23.33;;
29430;SDS011;16404;49.902;10.074;2024-03-07T03:32:57;44.38;;;23.48;;
29430;SDS011;16404;49.902;10.074;2024-03-07T03:35:42;41.47;;;23.08;;
29430;SDS011;16404;49.902;10.074;2024-03-07T03:38:28;43.90;;;24.90;;
29430;SDS011;16404;49.902;10.074;2024-03-07T03:41:15;45.28;;;24.45;;
29430;SDS011;16404;49.902;10.074;2024-03-07T03:44:00;43.55;;;23.90;;
29430;SDS011;16404;49.902;10.074;2024-03-07T03:46:47;42.42;;;23.05;;
29430;SDS011;16404;49.902;10.074;2024-03-07T03:49:33;43.63;;;23.27;;
29430;SDS011;16404;49.902;10.074;2024-03-07T03:52:17;41.85;;;23.58;;
29430;SDS011;16404;49.902;10.074;2024-03-07T03:55:02;42.35;;;24.35;;
29430;SDS011;16404;49.902;10.074;2024-03-07T03:57:51;42.13;;;23.75;;
29430;SDS011;16404;49.902;10.074;2024-03-07T04:00:35;42.65;;;24.05;;
29430;SDS011;16404;49.902;10.074;2024-03-07T04:03:20;41.92;;;23.80;;
29430;SDS011;16404;49.902;10.074;2024-03-07T04:06:04;38.13;;;22.83;;
29430;SDS011;16404;49.902;10.074;2024-03-07T04:08:49;43.90;;;23.52;;
29430;SDS011;16404;49.902;10.074;2024-03-07T04:11:33;38.10;;;23.77;;
29430;SDS011;16404;49.902;10.074;2024-03-07T04:14:18;39.42;;;22.20;;
29430;SDS011;16404;49.902;10.074;2024-03-07T04:17:03;39.20;;;22.73;;
29430;SDS011;16404;49.902;10.074;2024-03-07T04:19:50;40.28;;;22.88;;
29430;SDS011;16404;49.902;10.074;2024-03-07T04:22:35;38.67;;;22.25;;
29430;SDS011;16404;49.902;10.074;2024-03-07T04:25:22;38.35;;;21.90;;
29430;SDS011;16404;49.902;10.074;2024-03-07T04:28:08;34.22;;;21.30;;
29430;SDS011;16404;49.902;10.074;2024-03-07T04:30:53;42.28;;;21.92;;
29430;SDS011;16404;49.902;10.074;2024-03-07T04:33:38;35.63;;;21.05;;
29430;SDS011;16404;49.902;10.074;2024-03-07T04:36:23;35.85;;;20.17;;
29430;SDS011;16404;49.902;10.074;2024-03-07T04:39:08;35.42;;;19.50;;
29430;SDS011;16404;49.902;10.074;2024-03-07T04:42:06;30.65;;;17.45;;
29430;SDS011;16404;49.902;10.074;2024-03-07T04:44:52;27.92;;;16.30;;
29430;SDS011;16404;49.902;10.074;2024-03-07T04:47:36;28.40;;;16.27;;
29430;SDS011;16404;49.902;10.074;2024-03-07T04:50:21;27.45;;;16.92;;
29430;SDS011;16404;49.902;10.074;2024-03-07T04:53:05;29.10;;;16.08;;
29430;SDS011;16404;49.902;10.074;2024-03-07T04:55:50;30.25;;;16.70;;
29430;SDS011;16404;49.902;10.074;2024-03-07T04:58:35;26.77;;;15.07;;
29430;SDS011;16404;49.902;10.074;2024-03-07T05:01:20;30.15;;;16.92;;
29430;SDS011;16404;49.902;10.074;2024-03-07T05:04:04;26.30;;;16.00;;
29430;SDS011;16404;49.902;10.074;2024-03-07T05:06:50;27.08;;;15.65;;
29430;SDS011;16404;49.902;10.074;2024-03-07T05:09:34;28.58;;;15.95;;
29430;SDS011;16404;49.902;10.074;2024-03-07T05:12:19;23.98;;;15.07;;
29430;SDS011;16404;49.902;10.074;2024-03-07T05:15:04;28.58;;;15.30;;
29430;SDS011;16404;49.902;10.074;2024-03-07T05:17:49;25.45;;;14.75;;
29430;SDS011;16404;49.902;10.074;2024-03-07T05:20:34;26.98;;;15.23;;
29430;SDS011;16404;49.902;10.074;2024-03-07T05:23:19;26.58;;;15.80;;
29430;SDS011;16404;49.902;10.074;2024-03-07T05:26:03;27.98;;;15.35;;
29430;SDS011;16404;49.902;10.074;2024-03-07T05:28:50;25.55;;;15.02;;
29430;SDS011;16404;49.902;10.074;2024-03-07T05:31:36;22.75;;;14.27;;
29430;SDS011;16404;49.902;10.074;2024-03-07T05:34:21;25.75;;;14.57;;
29430;SDS011;16404;49.902;10.074;2024-03-07T05:37:07;26.70;;;14.93;;
29430;SDS011;16404;49.902;10.074;2024-03-07T05:39:51;26.60;;;15.38;;
29430;SDS011;16404;49.902;10.074;2024-03-07T05:42:36;31.92;;;15.35;;
29430;SDS011;16404;49.902;10.074;2024-03-07T05:45:21;26.00;;;15.07;;
29430;SDS011;16404;49.902;10.074;2024-03-07T05:48:13;27.35;;;14.82;;
29430;SDS011;16404;49.902;10.074;2024-03-07T05:51:01;28.10;;;15.35;;
29430;SDS011;16404;49.902;10.074;2024-03-07T05:53:46;30.13;;;15.18;;
29430;SDS011;16404;49.902;10.074;2024-03-07T05:56:31;24.60;;;14.55;;
29430;SDS011;16404;49.902;10.074;2024-03-07T05:59:15;28.98;;;14.65;;
29430;SDS011;16404;49.902;10.074;2024-03-07T06:04:45;25.45;;;14.98;;
29430;SDS011;16404;49.902;10.074;2024-03-07T06:07:29;25.20;;;14.57;;
29430;SDS011;16404;49.902;10.074;2024-03-07T06:10:14;27.05;;;15.63;;
29430;SDS011;16404;49.902;10.074;2024-03-07T06:13:00;26.08;;;14.98;;
29430;SDS011;16404;49.902;10.074;2024-03-07T06:15:45;27.33;;;15.00;;
29430;SDS011;16404;49.902;10.074;2024-03-07T06:18:31;26.02;;;14.90;;
29430;SDS011;16404;49.902;10.074;2024-03-07T06:21:15;27.98;;;15.80;;
29430;SDS011;16404;49.902;10.074;2024-03-07T06:24:00;25.98;;;14.50;;
29430;SDS011;16404;49.902;10.074;2024-03-07T06:26:46;26.02;;;14.63;;
29430;SDS011;16404;49.902;10.074;2024-03-07T06:29:32;25.85;;;15.40;;
29430;SDS011;16404;49.902;10.074;2024-03-07T06:32:17;27.70;;;15.57;;
29430;SDS011;16404;49.902;10.074;2024-03-07T06:35:01;29.25;;;16.38;;
29430;SDS011;16404;49.902;10.074;2024-03-07T06:37:46;31.13;;;16.40;;
29430;SDS011;16404;49.902;10.074;2024-03-07T06:40:31;28.85;;;16.33;;
29430;SDS011;16404;49.902;10.074;2024-03-07T06:43:16;33.88;;;17.02;;
29430;SDS011;16404;49.902;10.074;2024-03-07T06:46:01;35.72;;;17.42;;
29430;SDS011;16404;49.902;10.074;2024-03-07T06:51:30;36.55;;;17.42;;
29430;SDS011;16404;49.902;10.074;2024-03-07T06:54:14;33.30;;;16.67;;
29430;SDS011;16404;49.902;10.074;2024-03-07T06:56:59;30.85;;;16.52;;
29430;SDS011;16404;49.902;10.074;2024-03-07T06:59:44;34.67;;;16.95;;
29430;SDS011;16404;49.902;10.074;2024-03-07T07:02:28;30.23;;;18.15;;
29430;SDS011;16404;49.902;10.074;2024-03-07T07:05:14;31.75;;;16.90;;
29430;SDS011;16404;49.902;10.074;2024-03-07T07:07:59;32.72;;;17.90;;
29430;SDS011;16404;49.902;10.074;2024-03-07T07:10:43;30.02;;;17.42;;
29430;SDS011;16404;49.902;10.074;2024-03-07T07:13:28;31.52;;;17.65;;
29430;SDS011;16404;49.902;10.074;2024-03-07T07:16:12;31.52;;;17.88;;
29430;SDS011;16404;49.902;10.074;2024-03-07T07:18:57;31.77;;;17.42;;
29430;SDS011;16404;49.902;10.074;2024-03-07T07:21:41;36.55;;;17.30;;
29430;SDS011;16404;49.902;10.074;2024-03-07T07:24:26;33.03;;;17.80;;
29430;SDS011;16404;49.902;10.074;2024-03-07T07:27:12;28.58;;;16.60;;
29430;SDS011;16404;49.902;10.074;2024-03-07T07:29:56;33.05;;;17.08;;
29430;SDS011;16404;49.902;10.074;2024-03-07T07:35:26;30.55;;;17.02;;
29430;SDS011;16404;49.902;10.074;2024-03-07T07:38:11;28.35;;;16.73;;
29430;SDS011;16404;49.902;10.074;2024-03-07T07:40:58;32.25;;;17.65;;
29430;SDS011;16404;49.902;10.074;2024-03-07T07:43:43;35.05;;;18.02;;
29430;SDS011;16404;49.902;10.074;2024-03-07T07:46:27;29.25;;;17.48;;
29430;SDS011;16404;49.902;10.074;2024-03-07T07:49:12;28.67;;;17.42;;
29430;SDS011;16404;49.902;10.074;2024-03-07T07:51:57;33.72;;;17.90;;
29430;SDS011;16404;49.902;10.074;2024-03-07T07:54:42;32.67;;;17.80;;
29430;SDS011;16404;49.902;10.074;2024-03-07T07:57:27;32.92;;;17.67;;
29430;SDS011;16404;49.902;10.074;2024-03-07T08:00:13;34.88;;;18.50;;
29430;SDS011;16404;49.902;10.074;2024-03-07T08:03:07;32.50;;;17.42;;
29430;SDS011;16404;49.902;10.074;2024-03-07T08:05:51;33.78;;;18.88;;
29430;SDS011;16404;49.902;10.074;2024-03-07T08:08:36;34.15;;;17.50;;
29430;SDS011;16404;49.902;10.074;2024-03-07T08:11:20;38.63;;;19.38;;
29430;SDS011;16404;49.902;10.074;2024-03-07T08:14:05;33.55;;;18.15;;
29430;SDS011;16404;49.902;10.074;2024-03-07T08:16:49;36.35;;;19.50;;
29430;SDS011;16404;49.902;10.074;2024-03-07T08:22:19;37.80;;;19.33;;
29430;SDS011;16404;49.902;10.074;2024-03-07T08:25:03;34.08;;;19.15;;
29430;SDS011;16404;49.902;10.074;2024-03-07T08:27:53;38.35;;;19.38;;
29430;SDS011;16404;49.902;10.074;2024-03-07T08:30:38;33.72;;;18.67;;
29430;SDS011;16404;49.902;10.074;2024-03-07T08:33:23;37.10;;;20.27;;
29430;SDS011;16404;49.902;10.074;2024-03-07T08:36:07;37.90;;;20.33;;
29430;SDS011;16404;49.902;10.074;2024-03-07T08:38:53;38.75;;;20.83;;
29430;SDS011;16404;49.902;10.074;2024-03-07T08:41:38;37.63;;;20.27;;
29430;SDS011;16404;49.902;10.074;2024-03-07T08:44:24;35.53;;;19.42;;
29430;SDS011;16404;49.902;10.074;2024-03-07T08:47:09;34.80;;;19.95;;
29430;SDS011;16404;49.902;10.074;2024-03-07T08:49:54;38.50;;;20.92;;
29430;SDS011;16404;49.902;10.074;2024-03-07T08:52:38;38.80;;;20.33;;
29430;SDS011;16404;49.902;10.074;2024-03-07T08:55:24;40.63;;;21.17;;
29430;SDS011;16404;49.902;10.074;2024-03-07T08:58:09;38.45;;;21.63;;
29430;SDS011;16404;49.902;10.074;2024-03-07T09:00:53;39.42;;;19.73;;
29430;SDS011;16404;49.902;10.074;2024-03-07T09:03:38;36.30;;;20.63;;
29430;SDS011;16404;49.902;10.074;2024-03-07T09:06:22;38.38;;;20.67;;
29430;SDS011;16404;49.902;10.074;2024-03-07T09:09:07;37.45;;;20.52;;
29430;SDS011;16404;49.902;10.074;2024-03-07T09:11:52;33.25;;;19.70;;
29430;SDS011;16404;49.902;10.074;2024-03-07T09:14:37;37.90;;;20.65;;
29430;SDS011;16404;49.902;10.074;2024-03-07T09:17:21;35.60;;;19.75;;
29430;SDS011;16404;49.902;10.074;2024-03-07T09:20:06;37.30;;;20.65;;
29430;SDS011;16404;49.902;10.074;2024-03-07T09:22:52;36.03;;;19.65;;
29430;SDS011;16404;49.902;10.074;2024-03-07T09:25:38;40.75;;;20.67;;
29430;SDS011;16404;49.902;10.074;2024-03-07T09:28:24;35.35;;;19.20;;
29430;SDS011;16404;49.902;10.074;2024-03-07T09:31:09;38.25;;;19.95;;
29430;SDS011;16404;49.902;10.074;2024-03-07T09:33:53;34.22;;;19.15;;
29430;SDS011;16404;49.902;10.074;2024-03-07T09:36:38;35.75;;;19.90;;
29430;SDS011;16404;49.902;10.074;2024-03-07T09:39:24;34.60;;;18.85;;
29430;SDS011;16404;49.902;10.074;2024-03-07T09:42:10;37.20;;;19.73;;
29430;SDS011;16404;49.902;10.074;2024-03-07T09:44:57;33.35;;;18.70;;
29430;SDS011;16404;49.902;10.074;2024-03-07T09:47:47;34.53;;;18.80;;
29430;SDS011;16404;49.902;10.074;2024-03-07T09:50:33;29.95;;;17.48;;
29430;SDS011;16404;49.902;10.074;2024-03-07T09:53:19;30.55;;;18.17;;
29430;SDS011;16404;49.902;10.074;2024-03-07T09:56:04;33.45;;;18.63;;
29430;SDS011;16404;49.902;10.074;2024-03-07T09:58:51;31.63;;;17.92;;
29430;SDS011;16404;49.902;10.074;2024-03-07T10:01:36;30.33;;;17.65;;
29430;SDS011;16404;49.902;10.074;2024-03-07T10:04:31;32.38;;;17.98;;
29430;SDS011;16404;49.902;10.074;2024-03-07T10:07:34;29.98;;;17.20;;
29430;SDS011;16404;49.902;10.074;2024-03-07T10:10:19;31.50;;;17.38;;
29430;SDS011;16404;49.902;10.074;2024-03-07T10:13:05;30.65;;;17.95;;
29430;SDS011;16404;49.902;10.074;2024-03-07T10:15:52;33.03;;;18.10;;
29430;SDS011;16404;49.902;10.074;2024-03-07T10:21:29;30.30;;;17.17;;
29430;SDS011;16404;49.902;10.074;2024-03-07T10:24:13;32.28;;;16.95;;
29430;SDS011;16404;49.902;10.074;2024-03-07T10:26:58;30.35;;;17.05;;
29430;SDS011;16404;49.902;10.074;2024-03-07T10:29:45;32.47;;;17.55;;
29430;SDS011;16404;49.902;10.074;2024-03-07T10:32:31;28.35;;;15.93;;
29430;SDS011;16404;49.902;10.074;2024-03-07T10:35:20;29.38;;;16.65;;
29430;SDS011;16404;49.902;10.074;2024-03-07T10:38:06;24.70;;;15.00;;
29430;SDS011;16404;49.902;10.074;2024-03-07T10:40:53;30.70;;;16.67;;
29430;SDS011;16404;49.902;10.074;2024-03-07T10:43:38;29.15;;;16.73;;
29430;SDS011;16404;49.902;10.074;2024-03-07T10:46:27;32.83;;;15.90;;
29430;SDS011;16404;49.902;10.074;2024-03-07T10:49:12;28.75;;;16.33;;
29430;SDS011;16404;49.902;10.074;2024-03-07T10:52:03;28.77;;;15.30;;
29430;SDS011;16404;49.902;10.074;2024-03-07T10:54:58;28.60;;;15.73;;
29430;SDS011;16404;49.902;10.074;2024-03-07T10:57:56;30.80;;;15.75;;
29430;SDS011;16404;49.902;10.074;2024-03-07T11:00:50;26.58;;;14.98;;
29430;SDS011;16404;49.902;10.074;2024-03-07T11:03:39;25.38;;;15.05;;
29430;SDS011;16404;49.902;10.074;2024-03-07T11:06:25;29.63;;;15.57;;
29430;SDS011;16404;49.902;10.074;2024-03-07T11:09:10;27.25;;;14.70;;
29430;SDS011;16404;49.902;10.074;2024-03-07T11:11:55;25.25;;;13.52;;
29430;SDS011;16404;49.902;10.074;2024-03-07T11:14:41;27.88;;;15.65;;
29430;SDS011;16404;49.902;10.074;2024-03-07T11:17:28;25.15;;;13.32;;
29430;SDS011;16404;49.902;10.074;2024-03-07T11:20:20;24.95;;;14.18;;
29430;SDS011;16404;49.902;10.074;2024-03-07T11:23:27;23.10;;;13.63;;
29430;SDS011;16404;49.902;10.074;2024-03-07T11:26:12;23.80;;;13.85;;
29430;SDS011;16404;49.902;10.074;2024-03-07T11:28:57;22.08;;;13.15;;
29430;SDS011;16404;49.902;10.074;2024-03-07T11:31:42;23.33;;;13.27;;
29430;SDS011;16404;49.902;10.074;2024-03-07T11:34:29;21.80;;;13.30;;
29430;SDS011;16404;49.902;10.074;2024-03-07T11:37:17;22.75;;;13.38;;
29430;SDS011;16404;49.902;10.074;2024-03-07T11:40:06;22.92;;;13.20;;
29430;SDS011;16404;49.902;10.074;2024-03-07T11:42:52;23.83;;;12.48;;
29430;SDS011;16404;49.902;10.074;2024-03-07T11:45:37;25.73;;;13.55;;
29430;SDS011;16404;49.902;10.074;2024-03-07T11:48:28;23.00;;;12.65;;
29430;SDS011;16404;49.902;10.074;2024-03-07T11:51:17;23.13;;;14.02;;
29430;SDS011;16404;49.902;10.074;2024-03-07T11:54:01;22.27;;;13.02;;
29430;SDS011;16404;49.902;10.074;2024-03-07T11:56:46;25.15;;;13.55;;
29430;SDS011;16404;49.902;10.074;2024-03-07T11:59:35;22.83;;;13.43;;
29430;SDS011;16404;49.902;10.074;2024-03-07T12:02:21;25.00;;;13.98;;
29430;SDS011;16404;49.902;10.074;2024-03-07T12:05:06;24.35;;;13.45;;
29430;SDS011;16404;49.902;10.074;2024-03-07T12:07:51;20.08;;;12.98;;
29430;SDS011;16404;49.902;10.074;2024-03-07T12:10:36;21.67;;;12.93;;
29430;SDS011;16404;49.902;10.074;2024-03-07T12:13:22;22.30;;;13.20;;
29430;SDS011;16404;49.902;10.074;2024-03-07T12:16:08;22.63;;;12.30;;
29430;SDS011;16404;49.902;10.074;2024-03-07T12:18:53;20.33;;;12.23;;
29430;SDS011;16404;49.902;10.074;2024-03-07T12:21:37;20.85;;;11.27;;
29430;SDS011;16404;49.902;10.074;2024-03-07T12:24:22;23.40;;;12.98;;
29430;SDS011;16404;49.902;10.074;2024-03-07T12:27:11;23.67;;;12.57;;
29430;SDS011;16404;49.902;10.074;2024-03-07T12:29:56;20.77;;;11.55;;
29430;SDS011;16404;49.902;10.074;2024-03-07T12:32:46;21.08;;;11.90;;
29430;SDS011;16404;49.902;10.074;2024-03-07T12:35:33;20.80;;;11.38;;
29430;SDS011;16404;49.902;10.074;2024-03-07T12:38:19;20.73;;;12.02;;
29430;SDS011;16404;49.902;10.074;2024-03-07T12:41:06;26.00;;;11.20;;
29430;SDS011;16404;49.902;10.074;2024-03-07T12:43:57;19.80;;;11.63;;
29430;SDS011;16404;49.902;10.074;2024-03-07T12:46:41;18.90;;;11.48;;
29430;SDS011;16404;49.902;10.074;2024-03-07T12:49:26;21.50;;;11.65;;
29430;SDS011;16404;49.902;10.074;2024-03-07T12:52:11;18.45;;;11.25;;
29430;SDS011;16404;49.902;10.074;2024-03-07T12:54:59;23.02;;;11.82;;
29430;SDS011;16404;49.902;10.074;2024-03-07T12:57:44;21.55;;;11.40;;
29430;SDS011;16404;49.902;10.074;2024-03-07T13:00:28;18.15;;;10.95;;
29430;SDS011;16404;49.902;10.074;2024-03-07T13:03:13;21.17;;;11.98;;
29430;SDS011;16404;49.902;10.074;2024-03-07T13:05:58;20.00;;;11.32;;
29430;SDS011;16404;49.902;10.074;2024-03-07T13:08:44;21.90;;;12.40;;
29430;SDS011;16404;49.902;10.074;2024-03-07T13:11:28;21.13;;;11.77;;
29430;SDS011;16404;49.902;10.074;2024-03-07T13:14:15;18.58;;;11.20;;
29430;SDS011;16404;49.902;10.074;2024-03-07T13:17:00;19.10;;;11.43;;
29430;SDS011;16404;49.902;10.074;2024-03-07T13:19:49;23.63;;;11.52;;
29430;SDS011;16404;49.902;10.074;2024-03-07T13:22:44;18.63;;;12.15;;
29430;SDS011;16404;49.902;10.074;2024-03-07T13:25:31;21.88;;;11.10;;
29430;SDS011;16404;49.902;10.074;2024-03-07T13:28:18;15.88;;;10.23;;
29430;SDS011;16404;49.902;10.074;2024-03-07T13:31:08;18.92;;;10.90;;
29430;SDS011;16404;49.902;10.074;2024-03-07T13:33:52;21.90;;;10.35;;
29430;SDS011;16404;49.902;10.074;2024-03-07T13:36:37;17.90;;;10.77;;
29430;SDS011;16404;49.902;10.074;2024-03-07T13:39:22;17.52;;;10.75;;
29430;SDS011;16404;49.902;10.074;2024-03-07T13:42:06;22.52;;;12.05;;
29430;SDS011;16404;49.902;10.074;2024-03-07T13:44:54;19.73;;;11.60;;
29430;SDS011;16404;49.902;10.074;2024-03-07T13:47:40;21.13;;;11.13;;
29430;SDS011;16404;49.902;10.074;2024-03-07T13:50:26;21.30;;;10.93;;
29430;SDS011;16404;49.902;10.074;2024-03-07T13:53:12;19.92;;;11.05;;
29430;SDS011;16404;49.902;10.074;2024-03-07T14:04:58;18.13;;;10.35;;
29430;SDS011;16404;49.902;10.074;2024-03-07T14:11:54;20.42;;;12.15;;
29430;SDS011;16404;49.902;10.074;2024-03-07T14:27:30;25.83;;;14.30;;
29430;SDS011;16404;49.902;10.074;2024-03-07T14:33:11;25.08;;;14.05;;
29430;SDS011;16404;49.902;10.074;2024-03-07T14:38:54;22.52;;;14.85;;
29430;SDS011;16404;49.902;10.074;2024-03-07T14:44:46;26.73;;;13.85;;
29430;SDS011;16404;49.902;10.074;2024-03-07T14:47:32;24.15;;;12.15;;
29430;SDS011;16404;49.902;10.074;2024-03-07T14:50:16;23.98;;;12.05;;
29430;SDS011;16404;49.902;10.074;2024-03-07T14:53:04;21.80;;;12.13;;
29430;SDS011;16404;49.902;10.074;2024-03-07T14:55:48;22.15;;;12.48;;
29430;SDS011;16404;49.902;10.074;2024-03-07T14:58:33;24.45;;;12.73;;
29430;SDS011;16404;49.902;10.074;2024-03-07T15:01:17;21.27;;;11.48;;
29430;SDS011;16404;49.902;10.074;2024-03-07T15:04:02;25.95;;;13.40;;
29430;SDS011;16404;49.902;10.074;2024-03-07T15:06:50;23.58;;;12.73;;
29430;SDS011;16404;49.902;10.074;2024-03-07T15:09:36;29.52;;;18.67;;
29430;SDS011;16404;49.902;10.074;2024-03-07T15:12:21;26.80;;;14.75;;
29430;SDS011;16404;49.902;10.074;2024-03-07T15:15:06;28.60;;;14.15;;
29430;SDS011;16404;49.902;10.074;2024-03-07T15:17:54;24.58;;;13.73;;
29430;SDS011;16404;49.902;10.074;2024-03-07T15:20:39;23.58;;;13.25;;
29430;SDS011;16404;49.902;10.074;2024-03-07T15:23:25;23.70;;;14.15;;
29430;SDS011;16404;49.902;10.074;2024-03-07T15:28:55;26.08;;;13.75;;
29430;SDS011;16404;49.902;10.074;2024-03-07T15:34:25;27.85;;;12.63;;
29430;SDS011;16404;49.902;10.074;2024-03-07T15:37:10;22.83;;;13.05;;
29430;SDS011;16404;49.902;10.074;2024-03-07T15:39:58;23.77;;;13.07;;
29430;SDS011;16404;49.902;10.074;2024-03-07T15:42:45;28.25;;;13.13;;
29430;SDS011;16404;49.902;10.074;2024-03-07T15:45:37;25.92;;;13.00;;
29430;SDS011;16404;49.902;10.074;2024-03-07T15:48:22;25.70;;;13.30;;
29430;SDS011;16404;49.902;10.074;2024-03-07T15:51:08;28.63;;;14.20;;
29430;SDS011;16404;49.902;10.074;2024-03-07T15:53:55;26.08;;;13.27;;
29430;SDS011;16404;49.902;10.074;2024-03-07T15:56:39;29.75;;;14.68;;
29430;SDS011;16404;49.902;10.074;2024-03-07T15:59:24;26.50;;;14.55;;
29430;SDS011;16404;49.902;10.074;2024-03-07T16:02:09;26.02;;;14.65;;
29430;SDS011;16404;49.902;10.074;2024-03-07T16:04:54;26.65;;;14.52;;
29430;SDS011;16404;49.902;10.074;2024-03-07T16:07:40;30.73;;;16.65;;
29430;SDS011;16404;49.902;10.074;2024-03-07T16:10:26;30.92;;;16.42;;
29430;SDS011;16404;49.902;10.074;2024-03-07T16:13:17;29.95;;;15.27;;
29430;SDS011;16404;49.902;10.074;2024-03-07T16:16:01;25.10;;;15.43;;
29430;SDS011;16404;49.902;10.074;2024-03-07T16:18:49;29.65;;;14.75;;
29430;SDS011;16404;49.902;10.074;2024-03-07T16:21:33;29.80;;;13.20;;
29430;SDS011;16404;49.902;10.074;2024-03-07T16:24:18;24.25;;;14.18;;
29430;SDS011;16404;49.902;10.074;2024-03-07T16:27:02;24.05;;;14.52;;
29430;SDS011;16404;49.902;10.074;2024-03-07T16:29:48;25.88;;;15.10;;
29430;SDS011;16404;49.902;10.074;2024-03-07T16:32:33;37.38;;;15.27;;
29430;SDS011;16404;49.902;10.074;2024-03-07T16:35:19;26.85;;;14.82;;
29430;SDS011;16404;49.902;10.074;2024-03-07T16:38:05;26.13;;;14.88;;
29430;SDS011;16404;49.902;10.074;2024-03-07T16:40:53;26.48;;;15.10;;
29430;SDS011;16404;49.902;10.074;2024-03-07T16:43:37;31.27;;;15.57;;
29430;SDS011;16404;49.902;10.074;2024-03-07T16:46:22;29.52;;;15.27;;
29430;SDS011;16404;49.902;10.074;2024-03-07T16:49:07;30.52;;;17.48;;
29430;SDS011;16404;49.902;10.074;2024-03-07T16:51:51;31.65;;;16.15;;
29430;SDS011;16404;49.902;10.074;2024-03-07T16:57:21;25.58;;;14.90;;